White Hall, IL (62092)

4:20 PM CDT on April 19, 2015 (GMT -0500)
Weather Station 62694 | | Change Station
CLOSE
Current Station
Personal Weather Station
Location: Winchester, IL
Elevation: 548 ft
Nearby Weather Stations

Elev 548 ft 39.63 °N, 90.45 °W | Updated 32 seconds ago

Rain
Rain
60.1 °F
Feels Like 60.1 °F
N
2.2
Wind Variable Wind from NW
Gusts 4.5 mph

Today
High -- | Low -- °F
--% Chance of Precip.
Yesterday
High -- | Low -- °F
Precip. -- in
6:19 AM 7:43 PM
New Moon, 2% visible
Pressure 29.51 in
Visibility 1.5 miles
Clouds Overcast 500 ft
Dew Point 60 °F
Humidity 99%
Rainfall 0.69 in
Snow Depth Not available.
UV 2 out of 12
Pollen 2.60 out of 12
Air Quality Not available.
Flu Activity Regional
METAR KIJX 192055Z AUTO 00000KT 1 1/2SM +RA OVC005 16/15 A2951 RMK AO2 P0028 60062 T01550145

More Conditions Fewer Conditions

Pressure 29.51 in
Visibility 1.5 miles
Clouds Overcast 500 ft
Dew Point 60 °F
Humidity 99%
Rainfall 0.69 in
Snow Depth Not available.
UV 2 out of 12
Pollen 2.60 out of 12
Air Quality Not available.
Flu Activity Regional
METAR KIJX 192055Z AUTO 00000KT 1 1/2SM +RA OVC005 16/15 A2951 RMK AO2 P0028 60062 T01550145

More Conditions Fewer Conditions

10-Day Weather Forecast

Almanac

Astronomy

Apr. 19, 2015 Rise Set
Actual Time
Civil Twilight
Nautical Twilight
Astronomical Twilight
Moon
Length of Visible Light
Length of Day
Tomorrow will be .
, % of the Moon is Illuminated

Today's Extremes

State Highs State Lows

Community

WunderPhotos

Upload Photos

1,814,988 photos uploaded!

WunderBlogs® & News

Nearby

Air Quality

  Air Quality AQ Index Pollutant
Not available.

Snow Depth

Station Depth Elevation

Earthquake Activity

City Distance Mag. Time & Date
Minimum magnitude displayed is 2.5.

Coastal Water Temperatures

Place Temperature

Stations

Nearby Weather Stations

Station Location Temp. Windchill Dew Point Humidity Wind Precip. Elev Updated Type